Terminal Aerodrome Forecast
Issued by NWS

Home | Current Version | Previous Version | Text Only | Print | Product List | Glossary Off
Versions: 1 2 3 4 5 6 7 8 9 10 11 12 13 14 15

000
FTUS43 KBIS 090813 AAA
TAFJMS
TAF AMD
KJMS 090813Z 0908/1006 30009KT P6SM SCT010
      TEMPO 0909/0912 BKN010
     FM100400 31005KT P6SM BKN250=

USA.gov is the U.S. government's official web portal to all federal, state and local government web resources and services.